.
WxDataArchive / Data Records for 2006-10-24
2006-10-23 October 2006 2006-10-25

Data Records for Tuesday, 24 October 2006

Time	Temp	Chill	HIndex	Humid	Dewpt	 Wind 	HiWind	WindDir	Rain 	Barom 
-----	----	-----	------	-----	-----	------	------	-------	-----	----- 
00:00	37.8	37.8	37.8	62	26.0	1	3	248	0.00	29.993 
00:05	37.6	37.6	37.6	62	25.8	0	3	270	0.00	29.993 
00:10	37.6	37.6	37.6	62	25.8	1	3	292	0.00	29.993 
00:15	37.6	37.6	37.6	61	25.4	2	5	315	0.00	29.993 
00:20	37.6	37.6	37.6	62	25.8	1	5	292	0.00	29.993 
00:25	37.5	37.5	37.5	63	26.1	1	3	270	0.00	29.993 
00:30	37.5	37.5	37.5	64	26.4	1	3	315	0.00	29.990 
00:35	37.3	37.3	37.3	64	26.3	2	5	270	0.00	29.990 
00:40	37.3	37.3	37.3	64	26.3	1	4	270	0.00	29.990 
00:45	37.2	37.2	37.2	64	26.2	1	3	292	0.00	29.988 
00:50	37.2	37.2	37.2	65	26.5	1	4	270	0.00	29.988 
00:55	37.2	37.2	37.2	64	26.2	1	3	270	0.00	29.988 
01:00	37.2	37.2	37.2	64	26.2	0	2	292	0.00	29.988 
01:05	37.2	37.2	37.2	64	26.2	2	4	292	0.00	29.988 
01:10	37.0	37.0	37.0	65	26.3	2	5	270	0.00	29.988 
01:15	36.9	36.9	36.9	66	26.6	2	4	270	0.00	29.988 
01:20	36.6	36.6	36.6	68	27.1	1	3	248	0.00	29.988 
01:25	36.3	36.3	36.3	70	27.5	1	3	315	0.00	29.988 
01:30	36.2	36.2	36.2	71	27.7	1	4	315	0.00	29.989 
01:35	35.9	35.9	35.9	74	28.4	1	2	270	0.00	29.989 
01:40	35.5	35.5	35.5	76	28.7	2	4	270	0.00	29.989 
01:45	35.0	35.0	35.0	78	28.8	1	3	248	0.00	29.989 
01:50	34.7	34.7	34.7	79	28.9	0	1	270	0.00	29.989 
01:55	34.6	34.6	34.6	80	29.1	0	2	315	0.00	29.989 
02:00	34.6	34.6	34.6	80	29.1	1	2	270	0.00	29.989 
02:05	34.6	34.6	34.6	81	29.4	1	2	270	0.00	29.989 
02:10	34.4	34.4	34.4	81	29.2	0	2	270	0.00	29.989 
02:15	34.4	34.4	34.4	81	29.2	0	2	292	0.00	29.993 
02:20	34.6	34.6	34.6	81	29.4	1	3	292	0.00	29.993 
02:25	34.7	34.7	34.7	80	29.2	1	3	270	0.00	29.993 
02:30	34.9	34.9	34.9	80	29.4	1	3	270	0.00	29.993 
02:35	34.7	34.7	34.7	81	29.5	1	3	270	0.00	29.993 
02:40	34.6	34.6	34.6	82	29.7	1	2	270	0.00	29.993 
02:45	34.3	34.3	34.3	83	29.7	1	4	292	0.00	29.993 
02:50	34.1	34.1	34.1	84	29.8	1	3	248	0.00	29.993 
02:55	34.1	34.1	34.1	85	30.1	0	1	248	0.00	29.993 
03:00	34.0	34.0	34.0	86	30.3	1	2	248	0.00	29.994 
03:05	33.8	33.8	33.8	86	30.1	1	2	248	0.00	29.994 
03:10	33.7	33.7	33.7	87	30.3	0	2	248	0.00	29.994 
03:15	33.7	33.7	33.7	87	30.3	0	1	248	0.00	30.002 
03:20	33.7	33.7	33.7	88	30.5	1	2	248	0.00	30.002 
03:25	33.5	33.5	33.5	88	30.3	1	2	270	0.00	30.002 
03:30	33.5	33.5	33.5	88	30.3	1	3	248	0.00	30.002 
03:35	33.5	33.5	33.5	88	30.3	0	2	248	0.00	30.002 
03:40	33.5	33.5	33.5	89	30.6	0	2	248	0.00	30.002 
03:45	33.5	33.5	33.5	89	30.6	0	2	270	0.00	30.003 
03:50	33.7	33.7	33.7	89	30.8	0	2	270	0.00	30.003 
03:55	33.8	33.8	33.8	89	30.9	1	3	248	0.00	30.003 
04:00	33.8	33.8	33.8	89	30.9	1	3	248	0.00	30.004 
04:05	33.8	33.8	33.8	89	30.9	1	3	292	0.00	30.004 
04:10	34.0	34.0	34.0	89	31.1	1	3	248	0.00	30.004 
04:15	34.0	34.0	34.0	89	31.1	1	3	248	0.00	30.004 
04:20	34.1	34.1	34.1	89	31.2	1	4	270	0.00	30.004 
04:25	34.1	34.1	34.1	89	31.2	0	2	292	0.00	30.004 
04:30	34.1	34.1	34.1	89	31.2	1	2	292	0.00	30.004 
04:35	34.3	34.3	34.3	89	31.4	0	2	292	0.00	30.004 
04:40	34.3	34.3	34.3	89	31.4	0	1	292	0.00	30.004 
04:45	34.3	34.3	34.3	89	31.4	0	2	270	0.00	30.007 
04:50	34.4	34.4	34.4	88	31.2	1	3	270	0.00	30.007 
04:55	34.3	34.3	34.3	88	31.1	1	2	248	0.00	30.007 
05:00	34.4	34.4	34.4	88	31.2	1	2	292	0.00	30.015 
05:05	34.4	34.4	34.4	88	31.2	1	3	292	0.00	30.015 
05:10	34.6	34.6	34.6	88	31.4	0	2	292	0.00	30.015 
05:15	34.6	34.6	34.6	88	31.4	0	3	292	0.00	30.017 
05:20	34.7	34.7	34.7	88	31.5	0	2	292	0.00	30.017 
05:25	34.7	34.7	34.7	88	31.5	0	2	315	0.00	30.017 
05:30	34.9	34.9	34.9	88	31.7	0	2	315	0.00	30.017 
05:35	34.9	34.9	34.9	87	31.4	0	1	270	0.00	30.017 
05:40	34.9	34.9	34.9	87	31.4	0	1	270	0.00	30.017 
05:45	35.0	35.0	35.0	87	31.5	0	2	270	0.00	30.019 
05:50	35.0	35.0	35.0	87	31.5	0	2	270	0.00	30.019 
05:55	35.0	35.0	35.0	87	31.5	0	1	270	0.00	30.019 
06:00	35.2	35.2	35.2	87	31.7	0	2	270	0.00	30.021 
06:05	35.2	35.2	35.2	87	31.7	0	2	292	0.00	30.021 
06:10	35.2	35.2	35.2	87	31.7	0	3	292	0.00	30.021 
06:15	35.3	35.3	35.3	86	31.5	1	4	248	0.00	30.025 
06:20	35.3	35.3	35.3	85	31.2	1	3	248	0.00	30.025 
06:25	35.3	35.3	35.3	85	31.2	0	2	292	0.00	30.025 
06:30	35.3	35.3	35.3	85	31.2	0	2	292	0.00	30.034 
06:35	35.3	35.3	35.3	84	31.0	1	3	292	0.00	30.034 
06:40	35.3	35.3	35.3	83	30.7	0	3	292	0.00	30.034 
06:45	35.3	35.3	35.3	83	30.7	1	4	315	0.00	30.036 
06:50	35.3	35.3	35.3	82	30.4	0	2	315	0.00	30.036 
06:55	35.3	35.3	35.3	82	30.4	1	4	292	0.00	30.036 
07:00	35.3	35.3	35.3	82	30.4	0	2	292	0.00	30.046 
07:05	35.2	35.2	35.2	82	30.3	0	1	292	0.00	30.046 
07:10	35.2	35.2	35.2	82	30.3	1	3	292	0.00	30.046 
07:15	35.0	35.0	35.0	82	30.1	0	2	315	0.00	30.045 
07:20	34.7	34.7	34.7	82	29.8	0	2	292	0.00	30.045 
07:25	34.6	34.6	34.6	82	29.7	0	3	338	0.00	30.045 
07:30	34.4	34.4	34.4	83	29.8	0	1	338	0.00	30.053 
07:35	34.3	34.3	34.3	84	30.0	1	4	270	0.00	30.053 
07:40	34.1	34.1	34.1	84	29.8	0	1	315	0.00	30.053 
07:45	34.1	34.1	34.1	84	29.8	0	2	315	0.00	30.061 
07:50	34.0	34.0	34.0	84	29.7	1	3	270	0.00	30.061 
07:55	34.1	34.1	34.1	83	29.5	0	2	292	0.00	30.061 
08:00	34.1	34.1	34.1	83	29.5	0	2	315	0.00	30.068 
08:05	34.3	34.3	34.3	83	29.7	0	1	315	0.00	30.068 
08:10	34.3	34.3	34.3	84	30.0	0	2	315	0.00	30.068 
08:15	34.1	34.1	34.1	84	29.8	0	1	315	0.00	30.070 
08:20	34.0	34.0	34.0	84	29.7	0	1	315	0.00	30.070 
08:25	33.8	33.8	33.8	84	29.5	0	2	315	0.00	30.070 
08:30	33.8	33.8	33.8	84	29.5	0	2	315	0.00	30.074 
08:35	33.8	33.8	33.8	84	29.5	0	1	315	0.00	30.074 
08:40	33.7	33.7	33.7	84	29.4	0	1	315	0.00	30.074 
08:45	33.8	33.8	33.8	85	29.8	0	1	315	0.00	30.083 
08:50	34.0	34.0	34.0	85	30.0	0	1	315	0.00	30.083 
08:55	34.1	34.1	34.1	85	30.1	0	2	315	0.00	30.083 
09:00	34.3	34.3	34.3	85	30.3	1	3	292	0.00	30.086 
09:05	34.4	34.4	34.4	85	30.4	1	3	270	0.00	30.086 
09:10	34.6	34.6	34.6	85	30.6	1	2	292	0.00	30.086 
09:15	34.6	34.6	34.6	84	30.3	1	3	292	0.00	30.089 
09:20	34.7	34.7	34.7	84	30.4	1	3	315	0.00	30.089 
09:25	34.9	34.9	34.9	84	30.6	0	2	315	0.00	30.089 
09:30	35.3	35.3	35.3	84	31.0	1	3	270	0.00	30.094 
09:35	35.6	35.6	35.6	83	31.0	1	3	270	0.00	30.094 
09:40	35.9	35.9	35.9	82	31.0	2	4	248	0.00	30.094 
09:45	36.3	36.3	36.3	82	31.3	1	2	248	0.00	30.095 
09:50	36.9	36.9	36.9	81	31.6	1	3	248	0.00	30.095 
09:55	37.3	37.3	37.3	79	31.4	1	3	248	0.00	30.095 
10:00	37.5	37.5	37.5	79	31.6	1	2	248	0.00	30.097 
10:05	37.9	37.9	37.9	79	32.0	1	3	270	0.00	30.097 
10:10	38.3	38.3	38.3	77	31.7	2	3	248	0.00	30.097 
10:15	38.5	38.5	38.5	77	31.9	1	4	248	0.00	30.098 
10:20	38.9	38.9	38.9	77	32.3	1	3	315	0.00	30.098 
10:25	39.5	39.5	39.5	76	32.6	1	3	292	0.00	30.098 
10:30	39.8	39.8	39.8	74	32.2	1	3	315	0.00	30.097 
10:35	40.2	40.2	40.2	73	32.2	1	3	315	0.00	30.097 
10:40	40.6	40.6	40.6	73	32.6	1	3	270	0.00	30.097 
10:45	41.2	41.2	41.2	72	32.9	1	3	315	0.00	30.097 
10:50	41.1	41.1	41.1	72	32.8	2	5	292	0.00	30.097 
10:55	41.6	41.6	41.6	72	33.3	1	2	315	0.00	30.097 
11:00	42.2	42.2	42.2	73	34.2	1	3	315	0.00	30.101 
11:05	41.8	41.8	41.8	71	33.1	1	4	292	0.00	30.101 
11:10	41.3	41.3	41.3	70	32.3	1	3	338	0.00	30.101 
11:15	41.3	41.3	41.3	70	32.3	1	3	292	0.00	30.105 
11:20	42.2	42.2	42.2	69	32.8	1	2	292	0.00	30.105 
11:25	42.8	42.8	42.8	68	33.0	1	4	22	0.00	30.105 
11:30	43.2	43.2	43.2	67	33.0	1	3	292	0.00	30.107 
11:35	43.5	43.5	43.5	66	32.9	2	5	315	0.00	30.107 
11:40	43.6	43.6	43.6	67	33.4	2	6	270	0.00	30.107 
11:45	43.3	43.3	43.3	65	32.3	1	6	315	0.00	30.107 
11:50	43.9	43.9	43.9	68	34.0	1	4	315	0.00	30.107 
11:55	43.3	43.3	43.3	65	32.3	2	4	315	0.00	30.107 
12:00	43.1	43.1	43.1	65	32.1	2	4	338	0.00	30.108 
12:05	42.8	42.8	42.8	69	33.3	1	4	270	0.00	30.108 
12:10	42.9	42.9	42.9	67	32.7	2	5	315	0.00	30.108 
12:15	43.8	43.8	43.8	65	32.8	2	6	338	0.00	30.105 
12:20	44.2	44.2	44.2	65	33.2	2	4	315	0.00	30.105 
12:25	44.3	44.3	44.3	63	32.5	2	5	315	0.00	30.105 
12:30	44.2	44.2	44.2	62	32.0	1	3	292	0.00	30.099 
12:35	43.9	43.9	43.9	63	32.1	2	5	292	0.00	30.099 
12:40	43.6	43.6	43.6	63	31.8	2	5	315	0.00	30.099 
12:45	44.1	44.1	44.1	62	31.9	2	4	315	0.00	30.106 
12:50	45.1	45.1	45.1	59	31.6	1	4	292	0.00	30.106 
12:55	44.9	44.9	44.9	61	32.3	2	4	270	0.00	30.106 
13:00	44.6	44.6	44.6	59	31.2	2	7	315	0.00	30.105 
13:05	43.9	43.9	43.9	60	30.9	2	4	338	0.00	30.105 
13:10	43.8	43.8	43.8	62	31.6	2	5	315	0.00	30.105 
13:15	45.1	45.1	45.1	62	32.9	1	3	315	0.00	30.108 
13:20	45.5	45.5	45.5	61	32.8	2	4	292	0.00	30.108 
13:25	45.4	45.4	45.4	57	31.1	1	3	292	0.00	30.108 
13:30	45.4	45.4	45.4	59	31.9	1	3	315	0.00	30.104 
13:35	46.0	46.0	46.0	58	32.1	2	5	248	0.00	30.104 
13:40	45.4	45.4	45.4	59	31.9	1	4	315	0.00	30.104 
13:45	44.6	44.6	44.6	61	32.0	2	4	315	0.00	30.108 
13:50	45.4	45.4	45.4	60	32.3	2	6	270	0.00	30.108 
13:55	45.4	45.4	45.4	58	31.5	2	4	270	0.00	30.108 
14:00	45.1	45.1	45.1	58	31.2	1	5	315	0.00	30.110 
14:05	45.2	45.2	45.2	58	31.3	1	4	315	0.00	30.110 
14:10	45.1	45.1	45.1	58	31.2	2	4	315	0.00	30.110 
14:15	45.1	45.1	45.1	58	31.2	1	4	248	0.00	30.110 
14:20	44.9	44.9	44.9	60	31.9	0	2	292	0.00	30.110 
14:25	44.6	44.6	44.6	59	31.2	1	2	292	0.00	30.110 
14:30	44.3	44.3	44.3	59	30.9	2	4	315	0.00	30.109 
14:35	44.1	44.1	44.1	59	30.7	1	4	315	0.00	30.109 
14:40	44.1	44.1	44.1	60	31.1	1	3	315	0.00	30.109 
14:45	44.3	44.3	44.3	60	31.3	1	3	338	0.00	30.106 
14:50	44.6	44.6	44.6	59	31.2	2	4	315	0.00	30.106 
14:55	44.8	44.8	44.8	59	31.4	1	4	315	0.00	30.106 
15:00	44.8	44.8	44.8	57	30.5	1	4	315	0.00	30.101 
15:05	44.6	44.6	44.6	57	30.3	2	4	338	0.00	30.101 
15:10	44.5	44.5	44.5	58	30.7	2	5	292	0.00	30.101 
15:15	44.6	44.6	44.6	58	30.7	2	4	338	0.00	30.103 
15:20	44.6	44.6	44.6	57	30.3	1	4	292	0.00	30.103 
15:25	44.8	44.8	44.8	60	31.8	1	3	292	0.00	30.103 
15:30	44.8	44.8	44.8	60	31.8	2	5	270	0.00	30.108 
15:35	44.6	44.6	44.6	58	30.7	1	4	248	0.00	30.108 
15:40	44.9	44.9	44.9	59	31.5	1	2	270	0.00	30.108 
15:45	44.9	44.9	44.9	59	31.5	1	4	338	0.00	30.104 
15:50	44.9	44.9	44.9	60	31.9	0	1	292	0.00	30.104 
15:55	44.9	44.9	44.9	59	31.5	0	2	292	0.00	30.104 
16:00	44.9	44.9	44.9	57	30.6	0	2	292	0.00	30.096 
16:05	45.1	45.1	45.1	56	30.4	0	2	292	0.00	30.096 
16:10	45.4	45.4	45.4	55	30.2	1	3	248	0.00	30.096 
16:15	45.5	45.5	45.5	54	29.8	1	5	248	0.00	30.095 
16:20	45.4	45.4	45.4	53	29.3	1	3	338	0.00	30.095 
16:25	45.2	45.2	45.2	56	30.4	0	1	315	0.00	30.095 
16:30	45.2	45.2	45.2	56	30.4	0	2	315	0.00	30.099 
16:35	45.2	45.2	45.2	53	29.1	1	4	315	0.00	30.099 
16:40	45.1	45.1	45.1	54	29.5	1	2	315	0.00	30.099 
16:45	45.1	45.1	45.1	53	29.0	1	3	270	0.00	30.107 
16:50	44.9	44.9	44.9	53	28.8	1	3	270	0.00	30.107 
16:55	44.9	44.9	44.9	55	29.7	0	3	248	0.00	30.107 
17:00	44.9	44.9	44.9	55	29.7	0	2	248	0.00	30.107 
17:05	45.1	45.1	45.1	50	27.6	2	4	315	0.00	30.107 
17:10	45.1	45.1	45.1	51	28.1	1	2	315	0.00	30.107 
17:15	45.1	45.1	45.1	51	28.1	0	3	315	0.00	30.107 
17:20	45.2	45.2	45.2	51	28.2	0	3	315	0.00	30.107 
17:25	45.4	45.4	45.4	49	27.4	1	4	270	0.00	30.107 
17:30	45.5	45.5	45.5	49	27.5	1	2	315	0.00	30.105 
17:35	45.5	45.5	45.5	49	27.5	0	2	315	0.00	30.105 
17:40	45.5	45.5	45.5	50	28.0	1	4	315	0.00	30.105 
17:45	45.7	45.7	45.7	48	27.1	1	4	338	0.00	30.106 
17:50	45.8	45.8	45.8	45	25.7	2	5	338	0.00	30.106 
17:55	45.5	45.5	45.5	46	25.9	1	5	315	0.00	30.106 
18:00	45.2	45.2	45.2	47	26.2	1	3	315	0.00	30.109 
18:05	44.8	44.8	44.8	49	26.8	2	5	315	0.00	30.109 
18:10	44.5	44.5	44.5	51	27.5	1	3	292	0.00	30.109 
18:15	44.3	44.3	44.3	53	28.3	1	3	315	0.00	30.114 
18:20	44.1	44.1	44.1	53	28.1	1	2	270	0.00	30.114 
18:25	43.8	43.8	43.8	54	28.3	0	1	270	0.00	30.114 
18:30	43.5	43.5	43.5	55	28.4	0	1	270	0.00	30.113 
18:35	43.2	43.2	43.2	56	28.6	0	1	270	0.00	30.113 
18:40	43.1	43.1	43.1	56	28.5	0	3	270	0.00	30.113 
18:45	42.9	42.9	42.9	55	27.9	0	2	315	0.00	30.116 
18:50	42.8	42.8	42.8	56	28.2	0	3	315	0.00	30.116 
18:55	42.6	42.6	42.6	56	28.0	0	1	315	0.00	30.116 
19:00	42.5	42.5	42.5	57	28.4	0	2	315	0.00	30.125 
19:05	42.3	42.3	42.3	57	28.2	0	2	315	0.00	30.125 
19:10	42.2	42.2	42.2	58	28.5	0	1	315	0.00	30.125 
19:15	41.9	41.9	41.9	59	28.6	0	1	315	0.00	30.130 
19:20	41.8	41.8	41.8	58	28.1	0	1	315	0.00	30.130 
19:25	41.6	41.6	41.6	60	28.8	0	1	315	0.00	30.130 
19:30	41.3	41.3	41.3	60	28.5	0	3	315	0.00	30.135 
19:35	41.3	41.3	41.3	59	28.1	1	3	315	0.00	30.135 
19:40	41.2	41.2	41.2	60	28.4	0	2	315	0.00	30.135 
19:45	41.2	41.2	41.2	61	28.8	1	3	315	0.00	30.143 
19:50	41.1	41.1	41.1	61	28.7	0	2	315	0.00	30.143 
19:55	40.9	40.9	40.9	61	28.5	0	2	315	0.00	30.143 
20:00	40.8	40.8	40.8	62	28.8	0	1	315	0.00	30.145 
20:05	40.6	40.6	40.6	63	29.0	0	1	315	0.00	30.145 
20:10	40.3	40.3	40.3	63	28.7	0	1	315	0.00	30.145 
20:15	40.2	40.2	40.2	64	29.0	0	1	315	0.00	30.145 
20:20	40.1	40.1	40.1	65	29.3	0	1	315	0.00	30.145 
20:25	39.9	39.9	39.9	65	29.1	0	2	315	0.00	30.145 
20:30	39.6	39.6	39.6	66	29.2	0	1	315	0.00	30.147 
20:35	39.5	39.5	39.5	67	29.5	0	1	315	0.00	30.147 
20:40	39.5	39.5	39.5	67	29.5	0	1	315	0.00	30.147 
20:45	39.2	39.2	39.2	68	29.5	0	1	315	0.00	30.150 
20:50	39.1	39.1	39.1	69	29.8	0	1	315	0.00	30.150 
20:55	38.9	38.9	38.9	69	29.6	0	1	315	0.00	30.150 
21:00	38.8	38.8	38.8	70	29.9	0	1	315	0.00	30.151 
21:05	38.8	38.8	38.8	70	29.9	0	2	315	0.00	30.151 
21:10	38.8	38.8	38.8	70	29.9	0	1	315	0.00	30.151 
21:15	38.6	38.6	38.6	71	30.0	0	1	315	0.00	30.146 
21:20	38.3	38.3	38.3	71	29.7	0	1	315	0.00	30.146 
21:25	38.2	38.2	38.2	72	30.0	0	1	315	0.00	30.146 
21:30	37.9	37.9	37.9	73	30.0	0	0	---	0.00	30.146 
21:35	37.6	37.6	37.6	73	29.7	0	0	---	0.00	30.146 
21:40	37.3	37.3	37.3	73	29.5	0	1	315	0.00	30.146 
21:45	37.0	37.0	37.0	74	29.5	0	0	---	0.00	30.148 
21:50	36.9	36.9	36.9	75	29.7	0	0	---	0.00	30.148 
21:55	36.6	36.6	36.6	75	29.4	0	0	---	0.00	30.148 
22:00	36.3	36.3	36.3	76	29.5	0	0	---	0.00	30.151 
22:05	36.2	36.2	36.2	77	29.7	0	0	---	0.00	30.151 
22:10	36.0	36.0	36.0	77	29.5	0	0	---	0.00	30.151 
22:15	35.9	35.9	35.9	78	29.7	0	0	---	0.00	30.149 
22:20	35.8	35.8	35.8	78	29.6	0	1	315	0.00	30.149 
22:25	35.6	35.6	35.6	79	29.7	0	0	---	0.00	30.149 
22:30	35.5	35.5	35.5	79	29.6	0	0	---	0.00	30.149 
22:35	35.3	35.3	35.3	79	29.4	0	0	---	0.00	30.149 
22:40	35.2	35.2	35.2	80	29.7	0	0	---	0.00	30.149 
22:45	35.0	35.0	35.0	80	29.5	0	0	---	0.00	30.156 
22:50	34.7	34.7	34.7	80	29.2	0	0	---	0.00	30.156 
22:55	34.4	34.4	34.4	81	29.2	0	0	---	0.00	30.156 
23:00	34.1	34.1	34.1	82	29.2	0	0	---	0.00	30.159 
23:05	34.0	34.0	34.0	82	29.1	0	0	---	0.00	30.159 
23:10	33.7	33.7	33.7	82	28.8	0	0	---	0.00	30.159 
23:15	33.4	33.4	33.4	83	28.8	0	0	---	0.00	30.159 
23:20	33.1	33.1	33.1	84	28.8	0	0	---	0.00	30.159 
23:25	32.9	32.9	32.9	84	28.6	0	0	---	0.00	30.159 
23:30	32.7	32.7	32.7	85	28.7	0	0	---	0.00	30.160 
23:35	32.7	32.7	32.7	85	28.7	0	0	---	0.00	30.160 
23:40	32.5	32.5	32.5	85	28.5	0	0	---	0.00	30.160 
23:45	32.5	32.5	32.5	86	28.8	0	0	---	0.00	30.159 
23:50	32.4	32.4	32.4	86	28.7	0	0	---	0.00	30.159 
23:55	32.2	32.2	32.2	86	28.5	0	0	---	0.00	30.159 

CoCoRaHS
IN-AL-39
A2 Web Hosting
Creative Commons License
GoDaddy
Look for:

loaded 2017-10-17 09:07:27 • last modified 2010-11-18 10:43:29
Privacy PolicyDisclaimer
• wx.awcolley.com is powered by PmWiki v.2002016 •
• all content (unless otherwise noted) © 2017 A W Colley